»·PEaware :: N1JL KSAC-KSBA

N1JL :: KSAC-KSBA

FLIGHT INFORMATION

Flight Status: Arrived
Operator: Privately registered:
United States
More flights under this callsign
Pilot: Luke O. (6875)
Aircraft: BOEING 737-700
(B737)
More flights by this aircraft type
Origin: KSAC Sacramento Executive
United States
Destination: KSBA Santa Barbara Mun
United States
More flights between these airports :: More routes between these airports
Route: +ROM GVO RZS
File this flight plan on PilotEdge
Remarks:
Altitude:
(Current/Filed)
31,000ft
Speed:
(Current/Filed)
300kts
Departed: 02-Jan-18 08:03 PM
Arrived: 02-Jan-18 09:03 PM
Distance/Time
Traveled:
258nm/0:59
Distance/Time
To Go:
Arrived

Flight Plot

Page will automatically refresh every two minutes.

Flight plan parsing failed; only flown route is shown


Map Options




Map Legend


Flown Route
Filed Route
Departure Airport
Arrival Airport
Navaid (VOR, NDB)
Fix

Horizontal Profiles

Position Reports

Time Latitude Longitude Heading Altitude Ground
Speed
02-Jan-18 19:49 38.515344 -121.498489 37 32ft 0kts
02-Jan-18 19:50 38.515344 -121.498489 37 32ft 0kts
02-Jan-18 19:51 38.515344 -121.498489 37 32ft 0kts
02-Jan-18 19:52 38.515344 -121.498489 37 32ft 0kts
02-Jan-18 19:53 38.515344 -121.498489 37 32ft 0kts
02-Jan-18 19:54 38.515344 -121.498489 37 32ft 0kts
02-Jan-18 19:55 38.515344 -121.498489 37 32ft 0kts
02-Jan-18 19:56 38.515344 -121.498489 37 32ft 0kts
02-Jan-18 19:57 38.515344 -121.498489 37 32ft 0kts
02-Jan-18 19:58 38.515344 -121.498489 37 32ft 0kts
02-Jan-18 19:59 38.515344 -121.498489 37 32ft 0kts
02-Jan-18 20:00 38.515344 -121.498489 37 32ft 0kts
02-Jan-18 20:01 38.515526 -121.498250 54 32ft 10kts
02-Jan-18 20:02 38.514183 -121.496065 212 32ft 19kts
02-Jan-18 20:03 38.514384 -121.494714 31 32ft 18kts
02-Jan-18 20:04 38.518618 -121.491266 33 32ft 20kts
02-Jan-18 20:05 38.518860 -121.489251 123 32ft 0kts
02-Jan-18 20:06 38.519255 -121.490025 123 32ft 2kts
02-Jan-18 20:07 38.519260 -121.490034 123 32ft 0kts
02-Jan-18 20:08 38.518143 -121.489954 209 32ft 1kts
02-Jan-18 20:09 38.489533 -121.511089 200 1306ft 232kts
02-Jan-18 20:10 38.416973 -121.501412 156 2011ft 256kts
02-Jan-18 20:11 38.358579 -121.478382 163 2528ft 232kts
02-Jan-18 20:12 38.289702 -121.452560 163 7050ft 269kts
02-Jan-18 20:13 38.214857 -121.424493 163 12254ft 292kts
02-Jan-18 20:14 38.133697 -121.394049 163 16681ft 314kts
02-Jan-18 20:15 38.047334 -121.361643 163 20356ft 333kts
02-Jan-18 20:16 37.955750 -121.327265 163 23472ft 351kts
02-Jan-18 20:17 37.860084 -121.291342 163 26118ft 366kts
02-Jan-18 20:18 37.763551 -121.255080 163 29002ft 359kts
02-Jan-18 20:19 37.667865 -121.219122 163 31130ft 360kts
02-Jan-18 20:20 37.572208 -121.183162 163 31219ft 356kts
02-Jan-18 20:21 37.477221 -121.147439 163 31220ft 356kts
02-Jan-18 20:22 37.381990 -121.111612 163 31220ft 356kts
02-Jan-18 20:23 37.285663 -121.075358 163 31232ft 381kts
02-Jan-18 20:24 37.176271 -121.034174 163 31227ft 433kts
02-Jan-18 20:25 37.059504 -120.990194 163 31219ft 438kts
02-Jan-18 20:26 36.942865 -120.946243 163 31220ft 438kts
02-Jan-18 20:27 36.825820 -120.902115 163 31220ft 438kts
02-Jan-18 20:28 36.707252 -120.857350 163 31220ft 451kts
02-Jan-18 20:29 36.587510 -120.812156 162 31220ft 450kts
02-Jan-18 20:30 36.467424 -120.766806 162 31220ft 450kts
02-Jan-18 20:31 36.347743 -120.721583 162 31220ft 450kts
02-Jan-18 20:32 36.227668 -120.676187 162 31220ft 450kts
02-Jan-18 20:33 36.108068 -120.630945 162 31219ft 450kts
02-Jan-18 20:34 35.988469 -120.585677 162 31220ft 450kts
02-Jan-18 20:35 35.868447 -120.540226 162 31220ft 450kts
02-Jan-18 20:36 35.748871 -120.494918 162 31219ft 450kts
02-Jan-18 20:37 35.628980 -120.449469 162 31219ft 450kts
02-Jan-18 20:38 35.509397 -120.404112 162 31219ft 450kts
02-Jan-18 20:39 35.389911 -120.358769 162 31220ft 450kts
02-Jan-18 20:40 35.270042 -120.313258 162 31220ft 450kts
02-Jan-18 20:41 35.150589 -120.267881 162 31218ft 446kts
02-Jan-18 20:42 35.041582 -120.226451 162 31207ft 380kts
02-Jan-18 20:43 34.941363 -120.188342 162 31209ft 378kts
02-Jan-18 20:44 34.841081 -120.150191 162 29214ft 384kts
02-Jan-18 20:45 34.739760 -120.111628 162 27546ft 376kts
02-Jan-18 20:46 34.641110 -120.074059 162 25717ft 369kts
02-Jan-18 20:47 34.543824 -120.036996 162 23718ft 364kts
02-Jan-18 20:48 34.447133 -120.000143 162 21484ft 363kts
02-Jan-18 20:49 34.351010 -119.963489 162 19187ft 361kts
02-Jan-18 20:50 34.256013 -119.927247 162 16889ft 355kts
02-Jan-18 20:51 34.163603 -119.888600 144 14566ft 347kts
02-Jan-18 20:52 34.137857 -119.783308 92 12284ft 337kts
02-Jan-18 20:53 34.175487 -119.696840 8 10399ft 302kts
02-Jan-18 20:54 34.242857 -119.739092 322 8798ft 276kts
02-Jan-18 20:55 34.291297 -119.807302 283 6796ft 268kts
02-Jan-18 20:56 34.306969 -119.892546 282 5123ft 245kts
02-Jan-18 20:57 34.321155 -119.970089 282 5060ft 236kts
02-Jan-18 20:58 34.335365 -120.047662 282 3540ft 231kts
02-Jan-18 20:59 34.348864 -120.121275 282 3074ft 217kts
02-Jan-18 21:00 34.361940 -120.192496 282 3075ft 212kts
02-Jan-18 21:01 34.374615 -120.261183 284 3078ft 208kts
02-Jan-18 21:02 34.414635 -120.262458 78 3064ft 208kts
02-Jan-18 21:03 34.411980 -120.193122 86 3110ft 208kts
02-Jan-18 21:04 34.415674 -120.123102 84 3079ft 208kts
02-Jan-18 21:05 34.422819 -120.053734 85 3017ft 207kts
02-Jan-18 21:06 34.424787 -119.983962 88 2118ft 206kts
02-Jan-18 21:07 34.426194 -119.916828 88 1068ft 187kts
02-Jan-18 21:08 34.427347 -119.862282 87 170ft 132kts
02-Jan-18 21:09 34.427884 -119.838712 88 18ft 31kts
02-Jan-18 21:10 34.430158 -119.835341 358 18ft 17kts
02-Jan-18 21:11 34.432989 -119.834650 303 18ft 0kts
02-Jan-18 21:12 34.432989 -119.834650 303 18ft 0kts

Navigation Log

Ident Type
Flight plan parsing failed, navigation log unavailable